Time;durP1;ratioP1;P1;durP2;ratioP2;P2;SDS_P1;SDS_P2;PMS_P1;PMS_P2;Temp;Humidity;BMP_temperature;BMP_pressure;BME280_temperature;BME280_humidity;BME280_pressure;Samples;Min_cycle;Max_cycle;Signal;HPM_P1;HPM_P2
2022/04/02 00:01:24;;;;;;;32.47;17.92;;;17.50;48.70;;;;;;4951331;28;93214;-67
2022/04/02 00:03:50;;;;;;;32.17;17.13;;;17.40;48.60;;;;;;4950852;28;92931;-67
2022/04/02 00:06:16;;;;;;;31.85;17.10;;;17.40;48.50;;;;;;4952580;28;95502;-68
2022/04/02 00:08:41;;;;;;;30.20;16.98;;;17.40;48.60;;;;;;4953354;28;92858;-67
2022/04/02 00:11:07;;;;;;;29.02;15.80;;;17.40;48.50;;;;;;4950464;28;99543;-68
2022/04/02 00:13:34;;;;;;;30.65;17.63;;;17.40;48.50;;;;;;4951452;28;94310;-67
2022/04/02 00:16:01;;;;;;;28.85;16.40;;;17.40;48.50;;;;;;4951212;28;93115;-67
2022/04/02 00:18:29;;;;;;;30.08;16.10;;;17.40;48.50;;;;;;4950788;28;92566;-67
2022/04/02 00:20:55;;;;;;;29.02;15.68;;;17.30;48.40;;;;;;4950919;28;95239;-67
2022/04/02 00:23:39;;;;;;;31.13;16.27;;;17.30;48.40;;;;;;4950646;28;93930;-68
2022/04/02 00:26:08;;;;;;;;;;;17.30;48.40;;;;;;4951254;28;93072;-67
2022/04/02 00:28:39;;;;;;;28.50;15.85;;;17.30;48.50;;;;;;4953862;28;92539;-68
2022/04/02 00:31:08;;;;;;;27.17;14.93;;;17.30;48.50;;;;;;4949559;28;96470;-66
2022/04/02 00:33:35;;;;;;;26.08;14.75;;;17.30;48.40;;;;;;4950680;28;96410;-66
2022/04/02 00:36:02;;;;;;;29.55;14.90;;;17.30;48.50;;;;;;4949798;28;92554;-65
2022/04/02 00:38:28;;;;;;;27.70;14.85;;;17.30;48.40;;;;;;4950651;28;92529;-66
2022/04/02 00:40:54;;;;;;;27.63;14.43;;;17.20;48.30;;;;;;4950677;28;93966;-67
2022/04/02 00:43:28;;;;;;;26.30;14.65;;;17.20;48.30;;;;;;4950527;28;93425;-67
2022/04/02 00:45:56;;;;;;;27.83;15.30;;;17.30;48.20;;;;;;4951039;28;92825;-67
2022/04/02 00:48:22;;;;;;;22.92;13.13;;;17.20;48.20;;;;;;4951128;28;92802;-68
2022/04/02 00:50:58;;;;;;;25.15;13.70;;;17.20;48.20;;;;;;4950352;28;94053;-66
2022/04/02 00:53:28;;;;;;;24.33;13.30;;;17.20;48.20;;;;;;4950313;28;93247;-67
2022/04/02 00:55:55;;;;;;;23.90;13.63;;;17.20;48.20;;;;;;4950104;28;95484;-68
2022/04/02 00:58:21;;;;;;;25.38;12.80;;;17.20;48.20;;;;;;4950622;28;93148;-69
2022/04/02 01:00:46;;;;;;;24.80;13.38;;;17.20;48.20;;;;;;4949408;28;94104;-69
2022/04/02 01:03:13;;;;;;;24.30;13.50;;;17.20;48.10;;;;;;4950705;28;92604;-70
2022/04/02 01:05:40;;;;;;;22.02;12.50;;;17.20;48.00;;;;;;4933056;28;92590;-68
2022/04/02 01:08:06;;;;;;;25.75;12.77;;;17.20;48.00;;;;;;4949702;28;93106;-67
2022/04/02 01:10:33;;;;;;;24.52;13.05;;;17.20;48.00;;;;;;4949118;28;93432;-67
2022/04/02 01:12:59;;;;;;;22.25;12.10;;;17.20;48.00;;;;;;4951298;28;93156;-67
2022/04/02 01:15:28;;;;;;;24.05;12.63;;;17.20;48.10;;;;;;4950685;28;93024;-67
2022/04/02 01:17:54;;;;;;;22.33;12.07;;;17.20;48.20;;;;;;4951179;28;92956;-67
2022/04/02 01:20:20;;;;;;;23.25;12.15;;;17.20;48.30;;;;;;4947557;28;96807;-68
2022/04/02 01:22:49;;;;;;;22.50;12.43;;;17.20;48.50;;;;;;4949181;28;95399;-68
2022/04/02 01:25:16;;;;;;;19.35;11.68;;;17.20;48.50;;;;;;4949610;28;92877;-67
2022/04/02 01:27:46;;;;;;;19.60;10.93;;;17.20;48.50;;;;;;4950275;28;96065;-67
2022/04/02 01:30:16;;;;;;;19.00;11.20;;;17.30;48.60;;;;;;4948963;28;94904;-67
2022/04/02 01:32:42;;;;;;;19.45;10.98;;;17.30;48.50;;;;;;4950538;28;94267;-67
2022/04/02 01:35:10;;;;;;;20.35;11.32;;;17.30;48.70;;;;;;4949983;28;93152;-68
2022/04/02 01:37:38;;;;;;;21.27;12.50;;;17.30;48.60;;;;;;4950011;28;92405;-67
2022/04/02 01:40:05;;;;;;;20.20;11.18;;;17.30;48.70;;;;;;4950401;28;94305;-69
2022/04/02 01:42:31;;;;;;;18.00;10.30;;;17.20;48.80;;;;;;4948857;28;92434;-69
2022/04/02 01:44:56;;;;;;;17.55;10.23;;;17.30;48.90;;;;;;4948374;28;95481;-67
2022/04/02 01:47:22;;;;;;;18.67;10.98;;;17.30;48.90;;;;;;4949511;28;92678;-68
2022/04/02 01:49:48;;;;;;;18.77;10.68;;;17.30;48.90;;;;;;4949951;28;94094;-67
2022/04/02 01:52:17;;;;;;;18.95;10.52;;;17.30;48.70;;;;;;4949593;28;93968;-68
2022/04/02 01:54:43;;;;;;;18.13;9.45;;;17.30;48.80;;;;;;4950331;28;92614;-67
2022/04/02 01:57:09;;;;;;;19.73;9.75;;;17.30;48.70;;;;;;4951137;28;92969;-68
2022/04/02 01:59:35;;;;;;;18.33;10.18;;;17.30;48.60;;;;;;4951315;28;93554;-68
2022/04/02 02:02:01;;;;;;;19.50;10.32;;;17.30;48.60;;;;;;4950585;28;93938;-68
2022/04/02 02:04:27;;;;;;;17.40;9.60;;;17.30;48.60;;;;;;4949524;28;92731;-67
2022/04/02 02:06:53;;;;;;;18.25;10.07;;;17.30;48.60;;;;;;4951173;28;92918;-68
2022/04/02 02:09:19;;;;;;;24.05;14.07;;;17.20;48.60;;;;;;4948124;28;96537;-68
2022/04/02 02:11:45;;;;;;;60.03;33.35;;;17.20;48.50;;;;;;4949713;28;96727;-70
2022/04/02 02:14:10;;;;;;;93.22;51.00;;;17.20;48.60;;;;;;4949815;28;92760;-68
2022/04/02 02:16:36;;;;;;;92.57;53.10;;;17.20;48.50;;;;;;4949493;28;93865;-68
2022/04/02 02:19:02;;;;;;;93.72;53.05;;;17.10;48.50;;;;;;4948093;28;104357;-70
2022/04/02 02:21:29;;;;;;;85.15;49.03;;;17.10;48.50;;;;;;4951439;28;93067;-68
2022/04/02 02:23:56;;;;;;;86.80;47.85;;;17.10;48.60;;;;;;4953842;28;92682;-68
2022/04/02 02:26:22;;;;;;;87.63;49.78;;;17.10;48.50;;;;;;4951707;28;92199;-68
2022/04/02 02:28:48;;;;;;;86.22;47.22;;;17.00;48.50;;;;;;4951924;28;94325;-67
2022/04/02 02:31:14;;;;;;;81.18;47.30;;;17.00;48.50;;;;;;4952581;28;94924;-69
2022/04/02 02:36:25;;;;;;;80.93;46.58;;;17.00;48.30;;;;;;4953060;28;92734;-67
2022/04/02 02:38:51;;;;;;;83.40;47.83;;;17.00;48.30;;;;;;4952946;28;94631;-67
2022/04/02 02:41:17;;;;;;;79.30;44.42;;;16.90;48.30;;;;;;4952825;28;94163;-67
2022/04/02 02:43:42;;;;;;;79.35;44.58;;;16.90;48.30;;;;;;4952208;28;92542;-68
2022/04/02 02:46:08;;;;;;;76.53;44.28;;;16.90;48.20;;;;;;4952457;28;92983;-67
2022/04/02 02:48:34;;;;;;;75.20;44.05;;;16.90;48.20;;;;;;4952065;28;93539;-70
2022/04/02 02:51:00;;;;;;;77.22;43.33;;;16.90;48.10;;;;;;4952221;28;93979;-67
2022/04/02 02:53:26;;;;;;;70.95;42.15;;;16.90;48.10;;;;;;4952637;28;92537;-67
2022/04/02 02:55:52;;;;;;;70.32;42.13;;;16.90;48.10;;;;;;4952789;28;92498;-67
2022/04/02 02:58:17;;;;;;;73.15;41.13;;;16.80;48.00;;;;;;4950895;28;95476;-68
2022/04/02 03:00:43;;;;;;;71.50;39.90;;;16.80;48.00;;;;;;4952740;28;95941;-68
2022/04/02 03:03:09;;;;;;;71.43;40.42;;;16.80;48.00;;;;;;4952655;28;92792;-67
2022/04/02 03:05:35;;;;;;;64.63;38.13;;;16.80;47.90;;;;;;4952278;28;94319;-68
2022/04/02 03:08:02;;;;;;;61.03;38.17;;;16.80;47.90;;;;;;4952653;28;94133;-68
2022/04/02 03:10:28;;;;;;;64.85;38.58;;;16.80;47.80;;;;;;4953074;28;94097;-68
2022/04/02 03:12:57;;;;;;;67.53;38.97;;;16.80;47.80;;;;;;4953319;28;92748;-67
2022/04/02 03:15:24;;;;;;;61.50;37.75;;;16.80;47.80;;;;;;4952251;28;92293;-70
2022/04/02 04:19:04;;;;;;;43.83;26.75;;;16.60;47.20;;;;;;5172302;23;99313;-70
2022/04/02 04:21:31;;;;;;;44.05;26.55;;;16.50;47.20;;;;;;4937688;28;95644;-69
2022/04/02 04:23:56;;;;;;;40.75;26.13;;;16.60;47.20;;;;;;4935403;28;92580;-68
2022/04/02 04:26:23;;;;;;;42.60;26.52;;;16.50;47.10;;;;;;4933839;28;94128;-68
2022/04/02 04:28:48;;;;;;;40.67;25.75;;;16.50;47.10;;;;;;4933083;28;99001;-68
2022/04/02 04:31:18;;;;;;;41.90;25.77;;;16.50;47.10;;;;;;4933022;28;96732;-70
2022/04/02 04:33:44;;;;;;;40.20;24.80;;;16.50;47.10;;;;;;4933609;28;92961;-68
2022/04/02 04:36:11;;;;;;;43.60;25.38;;;16.50;47.10;;;;;;4933694;28;94337;-68
2022/04/02 04:38:37;;;;;;;40.08;25.02;;;16.50;47.10;;;;;;4933809;28;93715;-68
2022/04/02 04:41:03;;;;;;;39.45;23.95;;;16.50;47.10;;;;;;4932827;28;92890;-68
2022/04/02 04:43:30;;;;;;;37.30;23.35;;;16.50;47.10;;;;;;4931678;28;92897;-68
2022/04/02 04:45:56;;;;;;;38.65;23.83;;;16.50;47.10;;;;;;4931076;28;96349;-68
2022/04/02 04:48:22;;;;;;;37.60;23.10;;;16.50;47.10;;;;;;4924246;28;96472;-68
2022/04/02 04:50:48;;;;;;;35.42;23.02;;;16.50;47.00;;;;;;4932089;28;92615;-68
2022/04/02 04:53:14;;;;;;;38.30;22.95;;;16.50;47.00;;;;;;4932120;28;92672;-69
2022/04/02 04:55:40;;;;;;;33.42;22.17;;;16.50;47.00;;;;;;4932137;28;93563;-68
2022/04/02 04:58:05;;;;;;;40.25;21.08;;;16.40;46.90;;;;;;4931285;28;94030;-69
2022/04/02 05:00:31;;;;;;;39.63;22.02;;;16.40;46.90;;;;;;4931092;28;92552;-69
2022/04/02 05:02:58;;;;;;;37.10;21.40;;;16.40;47.00;;;;;;4931866;28;92256;-68
2022/04/02 05:05:24;;;;;;;33.88;20.17;;;16.40;46.90;;;;;;4930914;28;94799;-68
2022/04/02 05:07:50;;;;;;;33.67;20.23;;;16.40;46.80;;;;;;4931230;28;95091;-67
2022/04/02 05:10:16;;;;;;;34.28;20.25;;;16.40;46.80;;;;;;4930959;28;95359;-68
2022/04/02 05:12:42;;;;;;;30.73;19.77;;;16.40;46.90;;;;;;4931683;28;92511;-68
2022/04/02 05:15:08;;;;;;;32.53;20.20;;;16.40;46.90;;;;;;4932242;28;93137;-68
2022/04/02 05:17:35;;;;;;;30.45;18.35;;;16.40;46.80;;;;;;4933632;28;94534;-67
2022/04/02 05:20:02;;;;;;;30.63;18.70;;;16.40;46.80;;;;;;4950528;28;92789;-68
2022/04/02 05:22:28;;;;;;;29.27;18.88;;;16.40;46.70;;;;;;4951396;28;93151;-68
2022/04/02 05:24:54;;;;;;;27.60;16.98;;;16.40;46.80;;;;;;4950879;28;94096;-68
2022/04/02 05:27:20;;;;;;;27.20;17.80;;;16.40;46.80;;;;;;4951147;28;93412;-68
2022/04/02 05:29:46;;;;;;;28.00;17.92;;;16.50;46.90;;;;;;4951646;28;92959;-68
2022/04/02 05:32:12;;;;;;;27.35;17.40;;;16.50;46.90;;;;;;4950376;28;92732;-68
2022/04/02 05:34:37;;;;;;;26.15;16.73;;;16.50;47.00;;;;;;4950291;28;96563;-67
2022/04/02 05:37:03;;;;;;;25.80;16.00;;;16.50;47.00;;;;;;4949834;28;96797;-70
2022/04/02 05:39:29;;;;;;;29.40;17.77;;;16.50;46.90;;;;;;4949968;28;92529;-71
2022/04/02 05:41:55;;;;;;;31.27;17.35;;;16.50;46.90;;;;;;4950200;28;92762;-69
2022/04/02 05:44:20;;;;;;;24.35;16.02;;;16.50;47.00;;;;;;4949413;28;94454;-69
2022/04/02 05:46:46;;;;;;;26.17;15.32;;;16.50;47.00;;;;;;4949734;28;103248;-68
2022/04/02 05:49:11;;;;;;;24.95;16.35;;;16.50;47.00;;;;;;4949863;28;92755;-69
2022/04/02 05:51:38;;;;;;;27.15;16.25;;;16.50;47.00;;;;;;4951903;28;91797;-68
2022/04/02 05:54:04;;;;;;;23.48;15.07;;;16.50;47.20;;;;;;4950723;28;94151;-69
2022/04/02 05:56:30;;;;;;;26.48;15.63;;;16.50;47.10;;;;;;4957707;28;93066;-68
2022/04/02 05:58:56;;;;;;;25.98;15.68;;;16.50;47.20;;;;;;4955125;28;94929;-67
2022/04/02 06:01:22;;;;;;;22.88;14.43;;;16.50;47.40;;;;;;4956029;28;92684;-67
2022/04/02 06:03:47;;;;;;;21.60;14.07;;;16.50;47.50;;;;;;4955930;28;93678;-68
2022/04/02 06:06:14;;;;;;;21.65;13.40;;;16.60;47.60;;;;;;4956325;28;93884;-70
2022/04/02 06:08:40;;;;;;;34.58;13.73;;;16.60;47.60;;;;;;4958519;28;92486;-68
2022/04/02 06:11:06;;;;;;;22.30;13.98;;;16.70;47.60;;;;;;4959358;28;93549;-67
2022/04/02 06:13:32;;;;;;;20.95;12.95;;;16.90;47.50;;;;;;4957206;28;95137;-68
2022/04/02 06:15:58;;;;;;;20.40;12.63;;;17.10;47.30;;;;;;4957335;28;93393;-67
2022/04/02 06:18:24;;;;;;;22.50;12.60;;;17.30;47.20;;;;;;4955624;28;92878;-67
2022/04/02 06:20:50;;;;;;;22.45;12.95;;;17.40;47.10;;;;;;4955834;28;93092;-68
2022/04/02 06:23:16;;;;;;;23.45;11.45;;;17.50;46.90;;;;;;4955305;28;96614;-68
2022/04/02 06:25:43;;;;;;;20.33;12.35;;;17.70;46.80;;;;;;4956608;28;96486;-67
2022/04/02 06:28:09;;;;;;;26.58;12.05;;;17.80;46.70;;;;;;4956546;28;92962;-67
2022/04/02 06:30:35;;;;;;;36.13;11.90;;;17.90;46.70;;;;;;4956568;28;92991;-69
2022/04/02 06:33:00;;;;;;;30.33;11.57;;;18.00;46.70;;;;;;4955847;28;94046;-67
2022/04/02 06:35:27;;;;;;;51.70;12.80;;;18.10;46.70;;;;;;4956329;28;92892;-67
2022/04/02 06:37:54;;;;;;;74.60;12.98;;;18.10;47.00;;;;;;4956806;28;92981;-67
2022/04/02 06:40:21;;;;;;;71.32;12.70;;;18.10;47.80;;;;;;4956127;28;92095;-70
2022/04/02 06:42:46;;;;;;;63.47;10.93;;;18.20;48.40;;;;;;4955907;28;94084;-69
2022/04/02 06:45:12;;;;;;;42.17;11.10;;;18.30;48.40;;;;;;4956942;28;92666;-67
2022/04/02 06:47:39;;;;;;;37.30;9.30;;;18.20;48.20;;;;;;4955569;28;95502;-70
2022/04/02 06:50:12;;;;;;;34.90;9.00;;;18.30;48.00;;;;;;4957283;28;92741;-69
2022/04/02 06:52:39;;;;;;;28.90;9.45;;;18.30;47.50;;;;;;4955982;28;93676;-71
2022/04/02 06:55:08;;;;;;;28.05;8.90;;;18.30;48.50;;;;;;4955710;28;94739;-69
2022/04/02 06:58:00;;;;;;;27.92;8.60;;;18.20;47.40;;;;;;4954816;28;93016;-70
2022/04/02 07:00:26;;;;;;;32.00;8.48;;;18.30;47.60;;;;;;4951467;28;93025;-70
2022/04/02 07:02:52;;;;;;;26.83;8.52;;;18.30;47.70;;;;;;4955301;28;93652;-70
2022/04/02 07:05:18;;;;;;;25.17;8.07;;;18.20;47.50;;;;;;4957211;28;94136;-70
2022/04/02 07:07:44;;;;;;;30.98;8.80;;;18.30;47.50;;;;;;4952152;28;92696;-70
2022/04/02 07:10:11;;;;;;;23.30;7.32;;;18.30;47.60;;;;;;4954371;28;92553;-69
2022/04/02 07:12:36;;;;;;;23.42;7.70;;;18.30;47.50;;;;;;4952412;28;96496;-69
2022/04/02 07:15:06;;;;;;;22.52;7.85;;;18.30;47.50;;;;;;4953507;28;95367;-70
2022/04/02 07:17:31;;;;;;;18.88;8.20;;;18.30;47.50;;;;;;4952976;28;93822;-69
2022/04/02 07:19:59;;;;;;;21.40;7.57;;;18.30;47.50;;;;;;4952807;28;92671;-69
2022/04/02 07:22:25;;;;;;;19.08;8.00;;;18.40;47.40;;;;;;4952795;28;93129;-69
2022/04/02 07:24:52;;;;;;;21.38;7.50;;;18.40;47.40;;;;;;4952398;28;93048;-69
2022/04/02 07:27:23;;;;;;;15.77;6.95;;;18.40;47.30;;;;;;4953203;28;93218;-69
2022/04/02 07:29:53;;;;;;;19.67;7.30;;;18.40;47.20;;;;;;4953019;28;92334;-70
2022/04/02 07:32:19;;;;;;;18.33;7.70;;;18.50;47.10;;;;;;4952994;28;94483;-69
2022/04/02 07:34:44;;;;;;;20.58;7.38;;;18.50;47.00;;;;;;4952693;28;93901;-70
2022/04/02 07:37:24;;;;;;;18.02;6.80;;;18.50;47.00;;;;;;4952097;28;94924;-71
2022/04/02 07:40:06;;;;;;;17.40;6.80;;;18.50;46.90;;;;;;4952899;28;92977;-69
2022/04/02 07:42:35;;;;;;;16.17;6.82;;;18.50;47.00;;;;;;4952763;28;93075;-71
2022/04/02 07:45:08;;;;;;;14.85;6.55;;;18.60;47.10;;;;;;4952481;28;92845;-69
2022/04/02 07:47:35;;;;;;;;;;;18.50;47.10;;;;;;4952618;28;92506;-69
2022/04/02 07:50:07;;;;;;;14.52;6.55;;;18.50;47.10;;;;;;4953647;28;92511;-69
2022/04/02 07:52:33;;;;;;;15.63;6.45;;;18.60;47.00;;;;;;4952412;28;93306;-69
2022/04/02 07:55:01;;;;;;;12.65;5.95;;;18.60;46.80;;;;;;4952428;28;93972;-69
2022/04/02 07:57:53;;;;;;;15.82;6.15;;;18.70;46.80;;;;;;4953434;28;93033;-68
2022/04/02 08:00:22;;;;;;;11.32;5.53;;;18.60;46.70;;;;;;4944187;28;92727;-69
2022/04/02 08:02:50;;;;;;;10.75;5.72;;;18.70;46.80;;;;;;4954642;28;96859;-69
2022/04/02 08:05:18;;;;;;;11.50;6.18;;;18.70;46.90;;;;;;4955670;28;95126;-71
2022/04/02 08:07:50;;;;;;;11.82;5.90;;;18.70;46.80;;;;;;4954054;28;93026;-71
2022/04/02 08:10:20;;;;;;;10.07;5.90;;;18.70;46.70;;;;;;4953232;28;93820;-69
2022/04/02 08:12:46;;;;;;;15.50;5.72;;;18.80;46.80;;;;;;4951573;28;93225;-68
2022/04/02 08:15:18;;;;;;;11.20;5.90;;;18.70;46.70;;;;;;4952797;28;92881;-69
2022/04/02 08:17:47;;;;;;;9.52;5.47;;;18.80;46.70;;;;;;4951374;28;93132;-69
2022/04/02 08:20:17;;;;;;;9.88;5.43;;;18.80;46.70;;;;;;4952307;28;92374;-70
2022/04/02 08:22:44;;;;;;;10.65;5.35;;;18.80;46.60;;;;;;4953099;28;93095;-70
2022/04/02 08:25:11;;;;;;;12.18;5.18;;;18.90;46.60;;;;;;4951627;28;92780;-69
2022/04/02 08:27:46;;;;;;;11.20;5.10;;;18.90;46.60;;;;;;4950821;28;95372;-67
2022/04/02 08:30:18;;;;;;;9.35;5.03;;;19.00;46.60;;;;;;4952327;28;93092;-70
2022/04/02 08:33:18;;;;;;;10.90;5.20;;;18.90;46.50;;;;;;4952369;28;93172;-69
2022/04/02 08:36:18;;;;;;;8.35;4.82;;;19.00;46.50;;;;;;4951223;28;94123;-70
2022/04/02 08:38:57;;;;;;;10.43;4.68;;;19.00;46.50;;;;;;4952387;28;92629;-69
2022/04/02 08:41:42;;;;;;;11.70;4.68;;;19.00;46.50;;;;;;4951162;28;92975;-70
2022/04/02 08:44:42;;;;;;;7.70;4.10;;;19.00;46.50;;;;;;4951322;28;94419;-69
2022/04/02 08:47:39;;;;;;;7.00;4.28;;;19.00;46.50;;;;;;4952014;28;92862;-69
2022/04/02 08:50:10;;;;;;;13.65;4.05;;;19.00;46.50;;;;;;4953003;28;92550;-69
2022/04/02 08:53:18;;;;;;;8.63;4.55;;;19.00;46.60;;;;;;4952701;28;92850;-69
2022/04/02 08:56:00;;;;;;;7.80;4.00;;;18.90;46.40;;;;;;4877452;28;96443;-70
2022/04/02 08:58:48;;;;;;;6.53;4.20;;;18.90;46.50;;;;;;4944690;28;95674;-69
2022/04/02 09:01:22;;;;;;;6.70;3.28;;;18.80;46.60;;;;;;4951870;28;93051;-70
2022/04/02 09:03:57;;;;;;;8.98;4.40;;;18.90;46.50;;;;;;4951530;28;92917;-70
2022/04/02 09:06:49;;;;;;;9.52;4.07;;;18.90;46.40;;;;;;4951006;28;94630;-69
2022/04/02 09:09:31;;;;;;;8.05;3.72;;;18.90;46.30;;;;;;4951181;28;94137;-70
2022/04/02 09:12:13;;;;;;;7.75;4.05;;;19.00;46.20;;;;;;4952191;28;92729;-69
2022/04/02 09:15:06;;;;;;;6.68;3.75;;;19.00;46.20;;;;;;4952809;28;91827;-70
2022/04/02 09:17:49;;;;;;;8.75;3.70;;;19.00;46.20;;;;;;4951145;28;93286;-71
2022/04/02 09:20:36;;;;;;;7.95;4.07;;;19.10;46.20;;;;;;4950895;28;93187;-69
2022/04/02 09:23:44;;;;;;;4.97;3.20;;;19.10;46.00;;;;;;4951243;28;95272;-69
2022/04/02 09:26:48;;;;;;;5.35;2.90;;;19.20;46.00;;;;;;4953104;28;92577;-70
2022/04/02 09:29:30;;;;;;;6.55;3.30;;;19.10;46.00;;;;;;4951349;28;94212;-67
2022/04/02 09:32:25;;;;;;;12.15;3.55;;;19.20;45.90;;;;;;4951207;28;93872;-68
2022/04/02 09:35:03;;;;;;;6.63;3.25;;;19.20;45.60;;;;;;4950615;28;92545;-71
2022/04/02 09:38:05;;;;;;;6.78;3.13;;;19.20;45.40;;;;;;4950712;28;92565;-69
2022/04/02 09:40:44;;;;;;;9.35;3.10;;;19.20;45.20;;;;;;4949751;28;93144;-70
2022/04/02 09:43:31;;;;;;;6.88;2.75;;;19.20;45.10;;;;;;4950195;28;92744;-69
2022/04/02 09:46:24;;;;;;;6.75;3.17;;;19.10;45.00;;;;;;4950266;28;93038;-69
2022/04/02 09:49:04;;;;;;;8.75;2.90;;;19.20;45.10;;;;;;4953023;28;92579;-69
2022/04/02 09:51:34;;;;;;;7.88;2.63;;;19.20;45.20;;;;;;4953577;28;96547;-70
2022/04/02 09:54:34;;;;;;;5.82;2.67;;;19.20;45.00;;;;;;4958058;28;96229;-68
2022/04/02 09:57:36;;;;;;;6.25;2.83;;;19.20;44.90;;;;;;4954986;28;92591;-68
2022/04/02 10:00:08;;;;;;;5.75;2.78;;;19.20;44.90;;;;;;4953434;28;92514;-68
2022/04/02 10:03:13;;;;;;;6.18;2.60;;;19.20;44.90;;;;;;4951588;28;95814;-68
2022/04/02 10:06:04;;;;;;;5.05;2.40;;;19.30;44.80;;;;;;4949401;28;93776;-69
2022/04/02 10:08:54;;;;;;;4.25;2.70;;;19.30;44.70;;;;;;4950050;28;93051;-70
2022/04/02 10:11:26;;;;;;;5.13;2.20;;;19.40;44.50;;;;;;4951000;28;91920;-70
2022/04/02 10:13:52;;;;;;;6.97;2.38;;;19.40;44.50;;;;;;4950442;28;94204;-71
2022/04/02 10:16:21;;;;;;;5.85;2.30;;;19.40;44.50;;;;;;4950376;28;93204;-71
2022/04/02 10:18:52;;;;;;;6.50;2.35;;;19.40;44.50;;;;;;4948019;28;95718;-70
2022/04/02 10:21:19;;;;;;;6.57;2.78;;;19.50;44.70;;;;;;4950335;28;92718;-69
2022/04/02 10:23:53;;;;;;;4.10;2.58;;;19.50;44.40;;;;;;4949034;28;93439;-70
2022/04/02 10:26:20;;;;;;;4.90;2.40;;;19.50;44.40;;;;;;4950675;28;93853;-70
2022/04/02 10:28:57;;;;;;;3.45;2.03;;;19.60;44.30;;;;;;4950208;28;92567;-69
2022/04/02 10:31:35;;;;;;;4.75;2.10;;;19.60;44.30;;;;;;4950866;28;93039;-69
2022/04/02 10:34:29;;;;;;;4.18;2.28;;;19.50;44.30;;;;;;4949295;28;94605;-70
2022/04/02 10:37:05;;;;;;;4.25;1.98;;;19.50;44.40;;;;;;4912072;28;92781;-70
2022/04/02 10:39:32;;;;;;;5.45;2.17;;;19.40;44.40;;;;;;4950061;28;92576;-70
2022/04/02 10:42:05;;;;;;;4.30;2.10;;;19.40;44.50;;;;;;4951430;28;93148;-69
2022/04/02 10:44:59;;;;;;;4.38;2.38;;;19.40;44.50;;;;;;4951988;28;97219;-70
2022/04/02 10:47:28;;;;;;;5.28;2.40;;;19.40;44.50;;;;;;4954189;28;95314;-69
2022/04/02 10:50:03;;;;;;;3.28;1.98;;;19.40;44.50;;;;;;4953958;28;93074;-69
2022/04/02 10:52:31;;;;;;;4.03;2.10;;;19.40;44.50;;;;;;4954056;28;92562;-70
2022/04/02 10:54:57;;;;;;;3.88;2.42;;;19.40;44.50;;;;;;4953143;28;95032;-70
2022/04/02 10:57:22;;;;;;;3.25;2.00;;;19.40;44.40;;;;;;4953793;28;93364;-69
2022/04/02 10:59:48;;;;;;;3.88;2.10;;;19.40;45.50;;;;;;4952993;28;92635;-70
2022/04/02 11:02:24;;;;;;;4.05;2.00;;;19.40;44.40;;;;;;4953909;28;92035;-69
2022/04/02 11:05:02;;;;;;;4.70;2.25;;;19.50;44.30;;;;;;4952422;28;93205;-69
2022/04/02 11:07:30;;;;;;;2.38;1.73;;;19.50;44.20;;;;;;4953516;28;93009;-70
2022/04/02 11:09:59;;;;;;;4.32;2.38;;;19.50;44.20;;;;;;4952746;28;94929;-69
2022/04/02 11:12:33;;;;;;;3.30;1.75;;;19.50;44.10;;;;;;4953110;28;92416;-69
2022/04/02 11:15:20;;;;;;;3.75;1.95;;;19.50;44.10;;;;;;4952508;28;93115;-69
2022/04/02 11:17:48;;;;;;;3.22;1.80;;;19.50;44.10;;;;;;4952707;28;93892;-69
2022/04/02 11:20:20;;;;;;;2.65;1.65;;;19.40;44.20;;;;;;4952231;28;92505;-69
2022/04/02 11:22:51;;;;;;;2.80;1.80;;;19.40;44.10;;;;;;4952948;28;92531;-70
2022/04/02 11:25:35;;;;;;;3.17;1.67;;;19.30;44.20;;;;;;4952876;28;92922;-68
2022/04/02 11:28:11;;;;;;;;;;;19.30;44.30;;;;;;4953986;28;93878;-68
2022/04/02 11:30:50;;;;;;;3.33;1.80;;;19.20;44.40;;;;;;4954218;28;94264;-69
2022/04/02 11:33:22;;;;;;;2.50;1.52;;;19.20;44.40;;;;;;4953485;28;92557;-69
2022/04/02 11:35:55;;;;;;;4.68;1.85;;;19.10;44.30;;;;;;4950936;28;96453;-73
2022/04/02 11:38:25;;;;;;;4.60;2.00;;;19.10;44.10;;;;;;4952801;28;95199;-71
2022/04/02 11:41:13;;;;;;;5.47;1.92;;;19.00;44.30;;;;;;4953811;28;92556;-71
2022/04/02 11:43:44;;;;;;;3.88;1.85;;;19.00;45.00;;;;;;4955295;28;93111;-70
2022/04/02 11:46:18;;;;;;;5.95;2.45;;;19.00;45.70;;;;;;4956393;28;94147;-70
2022/04/02 11:48:50;;;;;;;5.32;2.20;;;19.00;46.40;;;;;;4953631;28;94081;-69
2022/04/02 11:51:19;;;;;;;5.20;2.30;;;19.00;46.90;;;;;;4951813;28;93137;-70
2022/04/02 11:53:51;;;;;;;4.57;2.30;;;18.90;47.20;;;;;;4952812;28;92165;-70
2022/04/02 11:56:39;;;;;;;5.65;2.45;;;18.90;47.60;;;;;;4953286;28;94945;-71
2022/04/02 11:59:13;;;;;;;3.88;2.13;;;18.90;47.80;;;;;;4952021;28;94097;-70
2022/04/02 12:01:50;;;;;;;3.83;2.20;;;18.80;48.00;;;;;;4950815;28;95499;-72
2022/04/02 12:04:17;;;;;;;3.55;1.70;;;18.80;48.30;;;;;;4953036;28;93039;-72
2022/04/02 12:06:45;;;;;;;3.88;2.13;;;18.80;48.30;;;;;;4953113;28;94745;-71
2022/04/02 12:09:13;;;;;;;4.03;1.95;;;18.70;48.40;;;;;;4952520;28;93855;-71
2022/04/02 12:11:42;;;;;;;4.80;2.17;;;18.70;48.40;;;;;;4951968;28;92481;-71
2022/04/02 12:14:08;;;;;;;6.07;1.75;;;18.70;48.60;;;;;;4952710;28;93103;-71
2022/04/02 12:16:34;;;;;;;3.10;1.95;;;18.70;48.60;;;;;;4952211;28;94337;-71
2022/04/02 12:19:00;;;;;;;4.05;2.08;;;18.60;48.60;;;;;;4951359;28;94323;-70
2022/04/02 12:21:43;;;;;;;4.65;1.90;;;18.60;48.70;;;;;;4951421;28;92616;-72
2022/04/02 12:24:11;;;;;;;4.30;1.50;;;18.60;48.70;;;;;;4951975;28;92773;-72
2022/04/02 12:26:37;;;;;;;3.20;1.70;;;18.50;48.80;;;;;;4951187;28;97246;-72
2022/04/02 12:29:04;;;;;;;5.05;1.92;;;18.50;48.90;;;;;;4952654;28;95506;-71
2022/04/02 12:31:31;;;;;;;3.88;1.67;;;18.50;48.90;;;;;;4951582;28;92519;-71
2022/04/02 12:33:58;;;;;;;6.65;1.77;;;18.40;48.90;;;;;;4951478;28;92930;-66
2022/04/02 12:36:31;;;;;;;2.30;1.67;;;18.40;48.90;;;;;;4949102;28;93934;-66
2022/04/02 12:39:08;;;;;;;4.93;2.00;;;18.40;48.90;;;;;;4949681;28;94086;-67
2022/04/02 12:41:49;;;;;;;3.08;1.63;;;18.40;48.80;;;;;;4950917;28;93083;-65
2022/04/02 12:44:19;;;;;;;2.95;1.65;;;18.40;48.70;;;;;;4951408;28;91855;-68
2022/04/02 12:46:45;;;;;;;4.65;1.88;;;18.40;48.70;;;;;;4951078;28;94036;-65
2022/04/02 12:49:35;;;;;;;2.65;1.65;;;18.40;48.50;;;;;;4950340;28;93843;-66
2022/04/02 12:52:15;;;;;;;3.03;1.63;;;18.40;48.30;;;;;;4949243;28;95347;-66
2022/04/02 12:54:50;;;;;;;2.92;1.48;;;18.40;48.30;;;;;;4949921;28;93084;-67
2022/04/02 12:57:16;;;;;;;3.30;1.42;;;18.40;48.20;;;;;;4950163;28;93326;-66
2022/04/02 12:59:50;;;;;;;2.85;1.50;;;18.40;48.20;;;;;;4950404;28;95029;-66
2022/04/02 13:02:23;;;;;;;2.35;1.38;;;18.40;48.20;;;;;;4950300;28;92513;-67
2022/04/02 13:04:54;;;;;;;2.45;1.13;;;18.40;48.00;;;;;;4950157;28;92925;-66
2022/04/02 13:07:23;;;;;;;4.57;1.55;;;18.40;48.10;;;;;;4949563;28;94038;-67
2022/04/02 13:09:53;;;;;;;2.92;1.40;;;18.30;48.00;;;;;;4950828;28;94252;-66
2022/04/02 13:12:21;;;;;;;3.55;1.50;;;18.30;48.00;;;;;;4950084;28;92812;-65
2022/04/02 13:14:56;;;;;;;3.42;1.40;;;18.40;48.00;;;;;;4950284;28;92472;-72
2022/04/02 13:17:23;;;;;;;1.75;1.20;;;18.40;47.90;;;;;;4949040;28;95505;-70
2022/04/02 13:22:52;;;;;;;2.58;1.33;;;18.60;47.40;;;;;;4951257;28;92516;-72
2022/04/02 13:25:22;;;;;;;3.15;1.17;;;18.70;47.20;;;;;;4953127;28;92739;-69
2022/04/02 13:28:04;;;;;;;3.53;1.33;;;18.80;46.90;;;;;;4951691;28;93059;-72
2022/04/02 13:30:43;;;;;;;3.80;1.40;;;18.90;46.70;;;;;;4951884;28;92894;-73
2022/04/02 13:33:40;;;;;;;4.65;1.40;;;18.90;46.50;;;;;;4953666;28;93056;-72
2022/04/02 13:36:51;;;;;;;7.38;1.73;;;18.90;46.30;;;;;;4939301;28;92170;-72
2022/04/02 13:39:19;;;;;;;5.65;1.73;;;18.90;46.30;;;;;;4920680;28;93494;-73
2022/04/02 13:41:52;;;;;;;2.03;1.23;;;18.90;47.30;;;;;;4951655;28;92780;-71
2022/04/02 13:44:25;;;;;;;2.72;1.58;;;19.00;46.30;;;;;;4950277;28;94905;-73
2022/04/02 13:46:55;;;;;;;3.50;1.20;;;19.00;47.20;;;;;;4934462;28;93061;-72
2022/04/02 13:49:31;;;;;;;1.75;0.90;;;19.00;46.20;;;;;;4949916;28;94135;-72
2022/04/02 13:51:59;;;;;;;2.10;1.10;;;19.00;46.20;;;;;;4933820;28;93799;-73
2022/04/02 13:54:30;;;;;;;2.17;1.10;;;18.90;46.10;;;;;;4951631;28;92514;-72
2022/04/02 13:57:02;;;;;;;1.92;1.10;;;18.80;46.10;;;;;;4950667;28;92559;-72
2022/04/02 13:59:33;;;;;;;2.20;1.17;;;18.80;46.20;;;;;;4951301;28;92848;-73
2022/04/02 14:02:00;;;;;;;4.72;1.38;;;18.80;46.40;;;;;;4951093;28;94346;-72
2022/04/02 14:04:37;;;;;;;3.70;1.20;;;18.70;46.30;;;;;;4950731;28;92563;-72
2022/04/02 14:07:06;;;;;;;2.65;0.95;;;18.70;46.40;;;;;;4951282;28;92553;-72